createdAt,value
2017-03-17T00:00:00.686Z,73855
2017-03-17T00:00:10.513Z,73860
2017-03-17T00:00:20.605Z,73856
2017-03-17T00:00:30.406Z,73858
2017-03-17T00:00:40.498Z,73862
2017-03-17T00:00:50.586Z,73860
2017-03-17T00:01:00.667Z,73855
2017-03-17T00:01:10.456Z,73856
2017-03-17T00:01:20.551Z,73857
2017-03-17T00:01:30.647Z,73853
2017-03-17T00:01:40.729Z,73855
2017-03-17T00:01:50.251Z,73854
2017-03-17T00:02:00.333Z,73853
2017-03-17T00:02:10.442Z,73855
2017-03-17T00:02:20.549Z,73847
2017-03-17T00:02:30.623Z,73854
2017-03-17T00:02:40.694Z,73859
2017-03-17T00:02:50.779Z,73867
2017-03-17T00:03:00.902Z,73864
2017-03-17T00:03:11.004Z,73866
2017-03-17T00:03:21.098Z,73862
2017-03-17T00:03:30.886Z,73855
2017-03-17T00:03:41.006Z,73852
2017-03-17T00:03:51.100Z,73852
2017-03-17T00:04:01.221Z,73857
2017-03-17T00:04:11.318Z,73855
2017-03-17T00:04:21.145Z,73861
2017-03-17T00:04:31.262Z,73861
2017-03-17T00:04:41.084Z,73859
2017-03-17T00:04:50.876Z,73859
2017-03-17T00:05:00.948Z,73851
2017-03-17T00:05:10.194Z,73849
2017-03-17T00:05:20.299Z,73853
2017-03-17T00:05:30.104Z,73860
2017-03-17T00:05:40.217Z,73861
2017-03-17T00:05:50.314Z,73859
2017-03-17T00:06:00.412Z,73857
2017-03-17T00:06:10.508Z,73854
2017-03-17T00:06:20.324Z,73858
2017-03-17T00:06:30.135Z,73853
2017-03-17T00:06:40.240Z,73856
2017-03-17T00:06:50.352Z,73864
2017-03-17T00:07:00.449Z,73869
2017-03-17T00:07:10.548Z,73864
2017-03-17T00:07:20.627Z,73871
2017-03-17T00:07:30.728Z,73868
2017-03-17T00:07:40.800Z,73862
2017-03-17T00:07:50.903Z,73860
2017-03-17T00:08:00.406Z,73859
2017-03-17T00:08:10.229Z,73859
2017-03-17T00:08:20.314Z,73860
2017-03-17T00:08:30.135Z,73856
2017-03-17T00:08:40.223Z,73857
2017-03-17T00:08:50.047Z,73845
2017-03-17T00:08:59.844Z,73850
2017-03-17T00:09:09.936Z,73852
2017-03-17T00:09:20.024Z,73854
2017-03-17T00:09:30.115Z,73854
2017-03-17T00:09:40.194Z,73857
2017-03-17T00:09:49.999Z,73857
2017-03-17T00:09:59.821Z,73857
2017-03-17T00:10:09.925Z,73855
2017-03-17T00:10:20.026Z,73865
2017-03-17T00:10:29.838Z,73861
2017-03-17T00:10:39.647Z,73861
2017-03-17T00:10:49.788Z,73855
2017-03-17T00:10:59.601Z,73852
2017-03-17T00:11:09.702Z,73848
2017-03-17T00:11:19.796Z,73846
2017-03-17T00:11:29.899Z,73850
2017-03-17T00:11:39.706Z,73853
2017-03-17T00:11:49.529Z,73851
2017-03-17T00:11:59.624Z,73851
2017-03-17T00:12:09.146Z,73849
2017-03-17T00:12:19.219Z,73850
2017-03-17T00:12:29.020Z,73858
2017-03-17T00:12:39.131Z,73855
2017-03-17T00:12:48.652Z,73848
2017-03-17T00:12:58.759Z,73847
2017-03-17T00:13:08.869Z,73850
2017-03-17T00:13:18.957Z,73852
2017-03-17T00:13:29.063Z,73855
2017-03-17T00:13:39.151Z,73856
2017-03-17T00:13:49.246Z,73859
2017-03-17T00:13:59.363Z,73858
2017-03-17T00:14:09.451Z,73853
2017-03-17T00:14:19.558Z,73851
2017-03-17T00:14:29.666Z,73846
2017-03-17T00:14:39.766Z,73840
2017-03-17T00:14:49.848Z,73843
2017-03-17T00:14:59.679Z,73843
2017-03-17T00:15:09.791Z,73848
2017-03-17T00:15:19.892Z,73849
2017-03-17T00:15:29.706Z,73851
2017-03-17T00:15:39.523Z,73850
2017-03-17T00:15:49.337Z,73855
2017-03-17T00:15:59.442Z,73854
2017-03-17T00:16:09.224Z,73850
2017-03-17T00:16:19.022Z,73852
2017-03-17T00:16:29.176Z,73859
2017-03-17T00:16:39.287Z,73854
2017-03-17T00:16:49.391Z,73846
2017-03-17T00:16:59.486Z,73849
2017-03-17T00:17:09.293Z,73848
2017-03-17T00:17:19.401Z,73844
2017-03-17T00:17:29.501Z,73847
2017-03-17T00:17:39.311Z,73856
2017-03-17T00:17:49.113Z,73855
2017-03-17T00:17:58.929Z,73849
2017-03-17T00:18:09.019Z,73851
2017-03-17T00:18:18.539Z,73853
2017-03-17T00:18:28.362Z,73850
2017-03-17T00:18:38.177Z,73844
2017-03-17T00:18:48.002Z,73847
2017-03-17T00:18:58.094Z,73850
2017-03-17T00:19:08.211Z,73837
2017-03-17T00:19:18.298Z,73838
2017-03-17T00:19:28.420Z,73833
2017-03-17T00:19:37.948Z,73832
2017-03-17T00:19:47.777Z,73840
2017-03-17T00:19:57.301Z,73835
2017-03-17T00:20:07.104Z,73843
2017-03-17T00:20:17.231Z,73844
2017-03-17T00:20:27.343Z,73841
2017-03-17T00:20:37.153Z,73846
2017-03-17T00:20:46.959Z,73841
2017-03-17T00:20:57.062Z,73843
2017-03-17T00:21:07.148Z,73844
2017-03-17T00:21:17.289Z,73844
2017-03-17T00:21:27.406Z,73849
2017-03-17T00:21:37.215Z,73851
2017-03-17T00:21:47.317Z,73851
2017-03-17T00:21:57.427Z,73849
2017-03-17T00:22:07.510Z,73839
2017-03-17T00:22:17.632Z,73833
2017-03-17T00:22:27.451Z,73843
2017-03-17T00:22:37.554Z,73848
2017-03-17T00:22:47.368Z,73850
2017-03-17T00:22:57.181Z,73847
2017-03-17T00:23:06.410Z,73849
2017-03-17T00:23:16.218Z,73850
2017-03-17T00:23:26.320Z,73848
2017-03-17T00:23:36.421Z,73849
2017-03-17T00:23:46.234Z,73845
2017-03-17T00:23:56.041Z,73852
2017-03-17T00:24:05.849Z,73848
2017-03-17T00:24:15.951Z,73837
2017-03-17T00:24:26.042Z,73847
2017-03-17T00:24:36.136Z,73844
2017-03-17T00:24:45.965Z,73848
2017-03-17T00:24:56.047Z,73845
2017-03-17T00:25:05.847Z,73846
2017-03-17T00:25:15.671Z,73849
2017-03-17T00:25:25.767Z,73848
2017-03-17T00:25:35.884Z,73849
2017-03-17T00:25:45.972Z,73844
2017-03-17T00:25:56.062Z,73843
2017-03-17T00:26:06.164Z,73840
2017-03-17T00:26:15.990Z,73838
2017-03-17T00:26:26.080Z,73836
2017-03-17T00:26:35.618Z,73832
2017-03-17T00:26:45.419Z,73838
2017-03-17T00:26:55.533Z,73837
2017-03-17T00:27:05.334Z,73840
2017-03-17T00:27:15.436Z,73838
2017-03-17T00:27:25.537Z,73837
2017-03-17T00:27:35.640Z,73840
2017-03-17T00:27:45.461Z,73837
2017-03-17T00:27:55.567Z,73832
2017-03-17T00:28:05.398Z,73839
2017-03-17T00:28:15.198Z,73834
2017-03-17T00:28:25.298Z,73841
2017-03-17T00:28:35.107Z,73840
2017-03-17T00:28:45.193Z,73844
2017-03-17T00:28:55.293Z,73850
2017-03-17T00:29:05.108Z,73846
2017-03-17T00:29:15.207Z,73836
2017-03-17T00:29:25.343Z,73829
2017-03-17T00:29:35.447Z,73837
2017-03-17T00:29:45.536Z,73838
2017-03-17T00:29:55.630Z,73836
2017-03-17T00:30:05.735Z,73842
2017-03-17T00:30:15.548Z,73846
2017-03-17T00:30:25.656Z,73840
2017-03-17T00:30:35.768Z,73832
2017-03-17T00:30:45.580Z,73837
2017-03-17T00:30:55.667Z,73840
2017-03-17T00:31:05.470Z,73833
2017-03-17T00:31:15.569Z,73832
2017-03-17T00:31:25.653Z,73832
2017-03-17T00:31:35.477Z,73846
2017-03-17T00:31:44.978Z,73843
2017-03-17T00:31:55.062Z,73840
2017-03-17T00:32:04.879Z,73847
2017-03-17T00:32:14.965Z,73841
2017-03-17T00:32:24.793Z,73826
2017-03-17T00:32:34.895Z,73831
2017-03-17T00:32:45.012Z,73832
2017-03-17T00:32:55.118Z,73841
2017-03-17T00:33:05.215Z,73844
2017-03-17T00:33:15.305Z,73846
2017-03-17T00:33:25.397Z,73832
2017-03-17T00:33:35.493Z,73841
2017-03-17T00:33:45.587Z,73842
2017-03-17T00:33:55.405Z,73832
2017-03-17T00:34:05.227Z,73839
2017-03-17T00:34:15.326Z,73831
2017-03-17T00:34:25.151Z,73832
2017-03-17T00:34:35.239Z,73833
2017-03-17T00:34:45.341Z,73833
2017-03-17T00:34:55.426Z,73836
2017-03-17T00:35:05.253Z,73833
2017-03-17T00:35:15.347Z,73837
2017-03-17T00:35:25.458Z,73828
2017-03-17T00:35:35.562Z,73833
2017-03-17T00:35:45.662Z,73837
2017-03-17T00:35:55.749Z,73831
2017-03-17T00:36:05.287Z,73835
2017-03-17T00:36:15.376Z,73840
2017-03-17T00:36:24.899Z,73837
2017-03-17T00:36:34.737Z,73827
2017-03-17T00:36:44.830Z,73830
2017-03-17T00:36:54.666Z,73834
2017-03-17T00:37:04.749Z,73831
2017-03-17T00:37:14.822Z,73837
2017-03-17T00:37:24.914Z,73838
2017-03-17T00:37:35.045Z,73835
2017-03-17T00:37:45.148Z,73832
2017-03-17T00:37:55.262Z,73845
2017-03-17T00:38:05.100Z,73851
2017-03-17T00:38:15.220Z,73843
2017-03-17T00:38:25.330Z,73839
2017-03-17T00:38:35.415Z,73841
2017-03-17T00:38:45.529Z,73834
2017-03-17T00:38:55.655Z,73832
2017-03-17T00:39:05.755Z,73834
2017-03-17T00:39:15.852Z,73834
2017-03-17T00:39:25.969Z,73844
2017-03-17T00:39:36.070Z,73847
2017-03-17T00:39:46.165Z,73848
2017-03-17T00:39:55.990Z,73840
2017-03-17T00:40:05.808Z,73844
2017-03-17T00:40:15.628Z,73839
2017-03-17T00:40:25.741Z,73835
2017-03-17T00:40:35.850Z,73836
2017-03-17T00:40:45.656Z,73832
2017-03-17T00:40:55.752Z,73837
2017-03-17T00:41:05.870Z,73825
2017-03-17T00:41:15.971Z,73827
2017-03-17T00:41:26.083Z,73827
2017-03-17T00:41:35.903Z,73838
2017-03-17T00:41:45.990Z,73841
2017-03-17T00:41:55.792Z,73835
2017-03-17T00:42:05.576Z,73831
2017-03-17T00:42:15.372Z,73825
2017-03-17T00:42:25.469Z,73829
2017-03-17T00:42:34.983Z,73835
2017-03-17T00:42:45.080Z,73841
2017-03-17T00:42:55.174Z,73834
2017-03-17T00:43:05.274Z,73842
2017-03-17T00:43:15.364Z,73836
2017-03-17T00:43:25.481Z,73831
2017-03-17T00:43:35.578Z,73834
2017-03-17T00:43:45.682Z,73831
2017-03-17T00:43:55.805Z,73832
2017-03-17T00:44:05.922Z,73828
2017-03-17T00:44:16.036Z,73833
2017-03-17T00:44:25.279Z,73830
2017-03-17T00:44:35.097Z,73821
2017-03-17T00:44:45.202Z,73818
2017-03-17T00:44:55.291Z,73824
2017-03-17T00:45:05.387Z,73831
2017-03-17T00:45:15.472Z,73828
2017-03-17T00:45:25.573Z,73825
2017-03-17T00:45:35.726Z,73835
2017-03-17T00:45:45.544Z,73830
2017-03-17T00:45:55.644Z,73823
2017-03-17T00:46:05.768Z,73826
2017-03-17T00:46:15.583Z,73821
2017-03-17T00:46:25.676Z,73821
2017-03-17T00:46:35.782Z,73820
2017-03-17T00:46:45.905Z,73814
2017-03-17T00:46:55.721Z,73816
2017-03-17T00:47:05.527Z,73819
2017-03-17T00:47:15.611Z,73826
2017-03-17T00:47:25.425Z,73823
2017-03-17T00:47:35.237Z,73823
2017-03-17T00:47:45.310Z,73830
2017-03-17T00:47:55.101Z,73834
2017-03-17T00:48:04.898Z,73836
2017-03-17T00:48:15.003Z,73838
2017-03-17T00:48:24.795Z,73822
2017-03-17T00:48:34.896Z,73824
2017-03-17T00:48:44.715Z,73827
2017-03-17T00:48:54.822Z,73835
2017-03-17T00:49:04.914Z,73833
2017-03-17T00:49:14.731Z,73833
2017-03-17T00:49:24.539Z,73836
2017-03-17T00:49:34.615Z,73832
2017-03-17T00:49:44.727Z,73834
2017-03-17T00:49:54.822Z,73833
2017-03-17T00:50:04.639Z,73826
2017-03-17T00:50:14.722Z,73827
2017-03-17T00:50:24.820Z,73828
2017-03-17T00:50:34.904Z,73830
2017-03-17T00:50:45.009Z,73831
2017-03-17T00:50:55.120Z,73834
2017-03-17T00:51:05.220Z,73833
2017-03-17T00:51:15.303Z,73823
2017-03-17T00:51:25.125Z,73828
2017-03-17T00:51:35.206Z,73831
2017-03-17T00:51:45.302Z,73822
2017-03-17T00:51:55.391Z,73829
2017-03-17T00:52:05.494Z,73831
2017-03-17T00:52:15.035Z,73826
2017-03-17T00:52:24.843Z,73826
2017-03-17T00:52:34.946Z,73826
2017-03-17T00:52:44.746Z,73819
2017-03-17T00:52:54.846Z,73822
2017-03-17T00:53:04.365Z,73821
2017-03-17T00:53:14.184Z,73831
2017-03-17T00:53:23.991Z,73823
2017-03-17T00:53:34.076Z,73813
2017-03-17T00:53:43.599Z,73814
2017-03-17T00:53:53.677Z,73816
2017-03-17T00:54:03.765Z,73827
2017-03-17T00:54:13.567Z,73833
2017-03-17T00:54:23.376Z,73834
2017-03-17T00:54:33.469Z,73833
2017-03-17T00:54:43.287Z,73828
2017-03-17T00:54:53.377Z,73827
2017-03-17T00:55:03.486Z,73825
2017-03-17T00:55:13.585Z,73823
2017-03-17T00:55:23.667Z,73824
2017-03-17T00:55:33.778Z,73824
2017-03-17T00:55:43.876Z,73820
2017-03-17T00:55:53.984Z,73815
2017-03-17T00:56:03.824Z,73813
2017-03-17T00:56:13.641Z,73819
2017-03-17T00:56:23.746Z,73813
2017-03-17T00:56:33.547Z,73818
2017-03-17T00:56:43.628Z,73811
2017-03-17T00:56:53.444Z,73824
2017-03-17T00:57:03.252Z,73822
2017-03-17T00:57:13.067Z,73822
2017-03-17T00:57:23.190Z,73809
2017-03-17T00:57:33.272Z,73815
2017-03-17T00:57:43.373Z,73831
2017-03-17T00:57:53.185Z,73823
2017-03-17T00:58:02.740Z,73820
2017-03-17T00:58:12.561Z,73825
2017-03-17T00:58:22.093Z,73827
2017-03-17T00:58:32.178Z,73815
2017-03-17T00:58:42.273Z,73816
2017-03-17T00:58:52.384Z,73820
2017-03-17T00:59:02.476Z,73828
2017-03-17T00:59:12.573Z,73831
2017-03-17T00:59:22.395Z,73825
2017-03-17T00:59:32.497Z,73826
2017-03-17T00:59:42.304Z,73827
2017-03-17T00:59:52.383Z,73811
2017-03-17T01:00:02.495Z,73818
2017-03-17T01:00:12.597Z,73821
2017-03-17T01:00:22.411Z,73817
2017-03-17T01:00:32.499Z,73813
2017-03-17T01:00:42.612Z,73809
2017-03-17T01:00:52.715Z,73813
2017-03-17T01:01:02.825Z,73808
2017-03-17T01:01:12.918Z,73813
2017-03-17T01:01:22.717Z,73813
2017-03-17T01:01:32.819Z,73819
2017-03-17T01:01:42.922Z,73818
2017-03-17T01:01:52.728Z,73817
2017-03-17T01:02:02.269Z,73823
2017-03-17T01:02:12.345Z,73825
2017-03-17T01:02:22.438Z,73824
2017-03-17T01:02:32.234Z,73827
2017-03-17T01:02:42.038Z,73830
2017-03-17T01:02:51.563Z,73820
2017-03-17T01:03:01.686Z,73818
2017-03-17T01:03:11.502Z,73813
2017-03-17T01:03:21.603Z,73808
2017-03-17T01:03:31.702Z,73806
2017-03-17T01:03:41.518Z,73805
2017-03-17T01:03:51.624Z,73805
2017-03-17T01:04:01.472Z,73815
2017-03-17T01:04:11.587Z,73809
2017-03-17T01:04:21.705Z,73817
2017-03-17T01:04:31.818Z,73816
2017-03-17T01:04:41.357Z,73812
2017-03-17T01:04:51.457Z,73813
2017-03-17T01:05:01.574Z,73815
2017-03-17T01:05:11.664Z,73814
2017-03-17T01:05:21.485Z,73810
2017-03-17T01:05:31.582Z,73815
2017-03-17T01:05:41.680Z,73812
2017-03-17T01:05:51.791Z,73806
2017-03-17T01:06:01.871Z,73805
2017-03-17T01:06:11.679Z,73808
2017-03-17T01:06:21.488Z,73811
2017-03-17T01:06:31.310Z,73806
2017-03-17T01:06:41.124Z,73818
2017-03-17T01:06:51.228Z,73811
2017-03-17T01:07:01.347Z,73810
2017-03-17T01:07:11.449Z,73816
2017-03-17T01:07:21.260Z,73814
2017-03-17T01:07:31.069Z,73812
2017-03-17T01:07:41.178Z,73809
2017-03-17T01:07:51.282Z,73803
2017-03-17T01:08:01.380Z,73798
2017-03-17T01:08:11.474Z,73805
2017-03-17T01:08:21.581Z,73807
2017-03-17T01:08:31.683Z,73806
2017-03-17T01:08:41.484Z,73806
2017-03-17T01:08:51.587Z,73799
2017-03-17T01:09:01.414Z,73800
2017-03-17T01:09:11.524Z,73804
2017-03-17T01:09:21.638Z,73808
2017-03-17T01:09:31.455Z,73815
2017-03-17T01:09:41.546Z,73811
2017-03-17T01:09:51.673Z,73807
2017-03-17T01:10:01.803Z,73808
2017-03-17T01:10:11.891Z,73813
2017-03-17T01:10:21.983Z,73806
2017-03-17T01:10:32.075Z,73808
2017-03-17T01:10:42.185Z,73810
2017-03-17T01:10:52.289Z,73808
2017-03-17T01:11:02.099Z,73807
2017-03-17T01:11:12.187Z,73799
2017-03-17T01:11:22.262Z,73803
2017-03-17T01:11:32.068Z,73813
2017-03-17T01:11:42.173Z,73811
2017-03-17T01:11:52.274Z,73807
2017-03-17T01:12:02.358Z,73814
2017-03-17T01:12:12.159Z,73805
2017-03-17T01:12:22.244Z,73800
2017-03-17T01:12:32.359Z,73799
2017-03-17T01:12:41.862Z,73795
2017-03-17T01:12:51.978Z,73797
2017-03-17T01:13:02.061Z,73812
2017-03-17T01:13:12.099Z,73807
2017-03-17T01:13:22.209Z,73804
2017-03-17T01:13:32.020Z,73803
2017-03-17T01:13:41.838Z,73804
2017-03-17T01:13:51.641Z,73811
2017-03-17T01:14:01.425Z,73811
2017-03-17T01:14:11.511Z,73810
2017-03-17T01:14:21.315Z,73807
2017-03-17T01:14:31.112Z,73802
2017-03-17T01:14:41.215Z,73796
2017-03-17T01:14:51.329Z,73793
2017-03-17T01:15:01.437Z,73799
2017-03-17T01:15:11.537Z,73799
2017-03-17T01:15:21.628Z,73799
2017-03-17T01:15:31.455Z,73804
2017-03-17T01:15:41.582Z,73804
2017-03-17T01:15:51.393Z,73806
2017-03-17T01:16:01.188Z,73801
2017-03-17T01:16:11.294Z,73807
2017-03-17T01:16:21.129Z,73804
2017-03-17T01:16:31.210Z,73801
2017-03-17T01:16:41.307Z,73795
2017-03-17T01:16:51.394Z,73791
2017-03-17T01:17:01.512Z,73795
2017-03-17T01:17:11.589Z,73798
2017-03-17T01:17:21.673Z,73805
2017-03-17T01:17:31.501Z,73801
2017-03-17T01:17:41.610Z,73795
2017-03-17T01:17:51.684Z,73798
2017-03-17T01:18:01.769Z,73799
2017-03-17T01:18:11.595Z,73796
2017-03-17T01:18:21.134Z,73787
2017-03-17T01:18:31.220Z,73787
2017-03-17T01:18:41.022Z,73794
2017-03-17T01:18:51.126Z,73798
2017-03-17T01:19:00.919Z,73793
2017-03-17T01:19:11.017Z,73797
2017-03-17T01:19:21.116Z,73795
2017-03-17T01:19:31.205Z,73797
2017-03-17T01:19:40.727Z,73795
2017-03-17T01:19:50.528Z,73790
2017-03-17T01:20:00.337Z,73795
2017-03-17T01:20:10.163Z,73794
2017-03-17T01:20:19.982Z,73787
2017-03-17T01:20:30.071Z,73787
2017-03-17T01:20:39.892Z,73785
2017-03-17T01:20:49.702Z,73791
2017-03-17T01:20:59.820Z,73795
2017-03-17T01:21:09.904Z,73797
2017-03-17T01:21:19.702Z,73798
2017-03-17T01:21:29.819Z,73795
2017-03-17T01:21:39.624Z,73796
2017-03-17T01:21:49.710Z,73787
2017-03-17T01:21:59.809Z,73787
2017-03-17T01:22:09.606Z,73783
2017-03-17T01:22:19.720Z,73789
2017-03-17T01:22:29.816Z,73790
2017-03-17T01:22:39.628Z,73788
2017-03-17T01:22:49.733Z,73796
2017-03-17T01:22:59.845Z,73801
2017-03-17T01:23:09.942Z,73798
2017-03-17T01:23:19.772Z,73799
2017-03-17T01:23:29.588Z,73798
2017-03-17T01:23:39.409Z,73797
2017-03-17T01:23:49.543Z,73795
2017-03-17T01:23:59.343Z,73793
2017-03-17T01:24:09.163Z,73794
2017-03-17T01:24:19.269Z,73796
2017-03-17T01:24:29.384Z,73804
2017-03-17T01:24:39.466Z,73798
2017-03-17T01:24:49.602Z,73795
2017-03-17T01:24:59.121Z,73785
2017-03-17T01:25:09.210Z,73788
2017-03-17T01:25:19.019Z,73789
2017-03-17T01:25:29.126Z,73785
2017-03-17T01:25:38.645Z,73789
2017-03-17T01:25:48.747Z,73788
2017-03-17T01:25:58.582Z,73792
2017-03-17T01:26:08.710Z,73788
2017-03-17T01:26:18.809Z,73787
2017-03-17T01:26:28.895Z,73778
2017-03-17T01:26:38.709Z,73788
2017-03-17T01:26:48.819Z,73794
2017-03-17T01:26:58.919Z,73789
2017-03-17T01:27:08.159Z,73785
2017-03-17T01:27:18.265Z,73790
2017-03-17T01:27:28.364Z,73787
2017-03-17T01:27:38.162Z,73794
2017-03-17T01:27:48.270Z,73791
2017-03-17T01:27:58.074Z,73785
2017-03-17T01:28:08.155Z,73782
2017-03-17T01:28:17.986Z,73780
2017-03-17T01:28:28.086Z,73775
2017-03-17T01:28:38.175Z,73784
2017-03-17T01:28:47.714Z,73783
2017-03-17T01:28:57.544Z,73785
2017-03-17T01:29:07.668Z,73786
2017-03-17T01:29:17.770Z,73782
2017-03-17T01:29:27.879Z,73784
2017-03-17T01:29:37.676Z,73792
2017-03-17T01:29:47.490Z,73788
2017-03-17T01:29:57.562Z,73786
2017-03-17T01:30:07.375Z,73792
2017-03-17T01:30:17.478Z,73792
2017-03-17T01:30:27.569Z,73786
2017-03-17T01:30:37.669Z,73784
2017-03-17T01:30:47.503Z,73783
2017-03-17T01:30:57.317Z,73786
2017-03-17T01:31:07.390Z,73776
2017-03-17T01:31:17.492Z,73775
2017-03-17T01:31:27.614Z,73777
2017-03-17T01:31:37.429Z,73788
2017-03-17T01:31:47.539Z,73786
2017-03-17T01:31:57.648Z,73786
2017-03-17T01:32:07.727Z,73788
2017-03-17T01:32:17.535Z,73788
2017-03-17T01:32:27.663Z,73784
2017-03-17T01:32:37.486Z,73778
2017-03-17T01:32:47.583Z,73782
2017-03-17T01:32:57.706Z,73783
2017-03-17T01:33:07.796Z,73779
2017-03-17T01:33:17.883Z,73778
2017-03-17T01:33:27.731Z,73771
2017-03-17T01:33:37.544Z,73777
2017-03-17T01:33:47.695Z,73788
2017-03-17T01:33:57.786Z,73784
2017-03-17T01:34:07.330Z,73781
2017-03-17T01:34:17.444Z,73786
2017-03-17T01:34:27.268Z,73786
2017-03-17T01:34:37.068Z,73785
2017-03-17T01:34:47.183Z,73785
2017-03-17T01:34:56.999Z,73783
2017-03-17T01:35:07.098Z,73775
2017-03-17T01:35:16.619Z,73773
2017-03-17T01:35:26.445Z,73779
2017-03-17T01:35:36.530Z,73779
2017-03-17T01:35:46.341Z,73780
2017-03-17T01:35:56.443Z,73778
2017-03-17T01:36:06.265Z,73775
2017-03-17T01:36:16.363Z,73777
2017-03-17T01:36:26.148Z,73777
2017-03-17T01:36:36.258Z,73785
2017-03-17T01:36:46.351Z,73781
2017-03-17T01:36:56.167Z,73782
2017-03-17T01:37:05.992Z,73782
2017-03-17T01:37:16.107Z,73779
2017-03-17T01:37:26.225Z,73781
2017-03-17T01:37:36.041Z,73779
2017-03-17T01:37:46.148Z,73776
2017-03-17T01:37:56.257Z,73776
2017-03-17T01:38:06.337Z,73772
2017-03-17T01:38:16.428Z,73773
2017-03-17T01:38:26.520Z,73782
2017-03-17T01:38:36.615Z,73788
2017-03-17T01:38:46.735Z,73782
2017-03-17T01:38:56.558Z,73781
2017-03-17T01:39:06.665Z,73779
2017-03-17T01:39:16.482Z,73781
2017-03-17T01:39:26.598Z,73778
2017-03-17T01:39:36.422Z,73779
2017-03-17T01:39:46.516Z,73774
2017-03-17T01:39:56.599Z,73768
2017-03-17T01:40:05.833Z,73768
2017-03-17T01:40:15.919Z,73785
2017-03-17T01:40:25.715Z,73774
2017-03-17T01:40:35.529Z,73788
2017-03-17T01:40:45.355Z,73787
2017-03-17T01:40:55.426Z,73787
2017-03-17T01:41:05.527Z,73782
2017-03-17T01:41:15.596Z,73770
2017-03-17T01:41:25.694Z,73770
2017-03-17T01:41:35.802Z,73769
2017-03-17T01:41:45.622Z,73773
2017-03-17T01:41:55.731Z,73772
2017-03-17T01:42:05.825Z,73772
2017-03-17T01:42:15.645Z,73762
2017-03-17T01:42:25.734Z,73761
2017-03-17T01:42:35.814Z,73764
2017-03-17T01:42:45.905Z,73768
2017-03-17T01:42:55.707Z,73780
2017-03-17T01:43:05.510Z,73779
2017-03-17T01:43:15.334Z,73778
2017-03-17T01:43:25.444Z,73771
2017-03-17T01:43:35.542Z,73769
2017-03-17T01:43:45.615Z,73768
2017-03-17T01:43:55.158Z,73774
2017-03-17T01:44:05.004Z,73780
2017-03-17T01:44:15.110Z,73782
2017-03-17T01:44:25.211Z,73777
2017-03-17T01:44:35.317Z,73769
2017-03-17T01:44:45.436Z,73764
2017-03-17T01:44:55.530Z,73769
2017-03-17T01:45:05.047Z,73773
2017-03-17T01:45:15.163Z,73779
2017-03-17T01:45:25.282Z,73778
2017-03-17T01:45:35.097Z,73776
2017-03-17T01:45:44.905Z,73772
2017-03-17T01:45:55.014Z,73767
2017-03-17T01:46:04.542Z,73768
2017-03-17T01:46:14.650Z,73771
2017-03-17T01:46:24.750Z,73769
2017-03-17T01:46:34.571Z,73772
2017-03-17T01:46:44.659Z,73772
2017-03-17T01:46:54.491Z,73778
2017-03-17T01:47:04.591Z,73772
2017-03-17T01:47:14.676Z,73773
2017-03-17T01:47:24.203Z,73770
2017-03-17T01:47:34.319Z,73771
2017-03-17T01:47:44.401Z,73772
2017-03-17T01:47:54.502Z,73772
2017-03-17T01:48:04.008Z,73767
2017-03-17T01:48:13.807Z,73763
2017-03-17T01:48:23.903Z,73769
2017-03-17T01:48:33.717Z,73775
2017-03-17T01:48:43.806Z,73779
2017-03-17T01:48:53.625Z,73774
2017-03-17T01:49:03.730Z,73775
2017-03-17T01:49:13.808Z,73783
2017-03-17T01:49:23.920Z,73777
2017-03-17T01:49:34.000Z,73776
2017-03-17T01:49:44.087Z,73775
2017-03-17T01:49:53.931Z,73774
2017-03-17T01:50:04.068Z,73774
2017-03-17T01:50:14.179Z,73766
2017-03-17T01:50:23.990Z,73770
2017-03-17T01:50:34.092Z,73772
2017-03-17T01:50:43.923Z,73773
2017-03-17T01:50:53.742Z,73765
2017-03-17T01:51:03.813Z,73762
2017-03-17T01:51:13.915Z,73758
2017-03-17T01:51:23.699Z,73765
2017-03-17T01:51:33.516Z,73767
2017-03-17T01:51:43.316Z,73770
2017-03-17T01:51:53.156Z,73770
2017-03-17T01:52:03.269Z,73767
2017-03-17T01:52:13.399Z,73762
2017-03-17T01:52:23.481Z,73756
2017-03-17T01:52:33.553Z,73763
2017-03-17T01:52:43.351Z,73764
2017-03-17T01:52:53.166Z,73757
2017-03-17T01:53:02.969Z,73767
2017-03-17T01:53:13.071Z,73765
2017-03-17T01:53:23.165Z,73769
2017-03-17T01:53:32.990Z,73777
2017-03-17T01:53:42.818Z,73772
2017-03-17T01:53:52.940Z,73768
2017-03-17T01:54:03.057Z,73763
2017-03-17T01:54:12.886Z,73761
2017-03-17T01:54:22.987Z,73759
2017-03-17T01:54:33.081Z,73769
2017-03-17T01:54:43.191Z,73771
2017-03-17T01:54:53.270Z,73775
2017-03-17T01:55:03.357Z,73765
2017-03-17T01:55:13.157Z,73769
2017-03-17T01:55:23.236Z,73763
2017-03-17T01:55:33.329Z,73765
2017-03-17T01:55:42.841Z,73767
2017-03-17T01:55:52.968Z,73771
2017-03-17T01:56:02.800Z,73766
2017-03-17T01:56:12.895Z,73768
2017-03-17T01:56:22.424Z,73765
2017-03-17T01:56:32.537Z,73768
2017-03-17T01:56:42.630Z,73762
2017-03-17T01:56:52.739Z,73769
2017-03-17T01:57:02.850Z,73772
2017-03-17T01:57:12.665Z,73767
2017-03-17T01:57:22.774Z,73757
2017-03-17T01:57:32.884Z,73762
2017-03-17T01:57:42.698Z,73767
2017-03-17T01:57:52.792Z,73769
2017-03-17T01:58:02.596Z,73767
2017-03-17T01:58:12.698Z,73769
2017-03-17T01:58:22.516Z,73761
2017-03-17T01:58:32.337Z,73763
2017-03-17T01:58:41.873Z,73758
2017-03-17T01:58:51.423Z,73753
2017-03-17T01:59:01.521Z,73757
2017-03-17T01:59:11.635Z,73760
2017-03-17T01:59:21.459Z,73762
2017-03-17T01:59:31.275Z,73761
2017-03-17T01:59:41.087Z,73760
2017-03-17T01:59:50.896Z,73760
2017-03-17T02:00:00.999Z,73758
2017-03-17T02:00:10.526Z,73753
2017-03-17T02:00:20.639Z,73758
2017-03-17T02:00:30.754Z,73765
2017-03-17T02:00:40.863Z,73764
2017-03-17T02:00:50.951Z,73759
2017-03-17T02:01:00.764Z,73754
2017-03-17T02:01:10.894Z,73754
2017-03-17T02:01:21.004Z,73767
2017-03-17T02:01:31.102Z,73765
2017-03-17T02:01:41.211Z,73767
2017-03-17T02:01:51.064Z,73762
2017-03-17T02:02:01.161Z,73761
2017-03-17T02:02:11.249Z,73762
2017-03-17T02:02:21.052Z,73761
2017-03-17T02:02:31.139Z,73759
2017-03-17T02:02:41.222Z,73760
2017-03-17T02:02:51.304Z,73764
2017-03-17T02:03:01.410Z,73758
2017-03-17T02:03:11.222Z,73758
2017-03-17T02:03:21.336Z,73762
2017-03-17T02:03:31.435Z,73761
2017-03-17T02:03:41.263Z,73763
2017-03-17T02:03:51.355Z,73760
2017-03-17T02:04:01.154Z,73758
2017-03-17T02:04:10.974Z,73764
2017-03-17T02:04:21.074Z,73762
2017-03-17T02:04:31.178Z,73766
2017-03-17T02:04:40.975Z,73768
2017-03-17T02:04:50.777Z,73763
2017-03-17T02:05:00.875Z,73771
2017-03-17T02:05:10.950Z,73766
2017-03-17T02:05:21.059Z,73759
2017-03-17T02:05:30.872Z,73756
2017-03-17T02:05:40.702Z,73750
2017-03-17T02:05:50.510Z,73761
2017-03-17T02:06:00.605Z,73758
2017-03-17T02:06:10.412Z,73755
2017-03-17T02:06:20.499Z,73758
2017-03-17T02:06:30.323Z,73758
2017-03-17T02:06:40.107Z,73752
2017-03-17T02:06:50.201Z,73750
2017-03-17T02:07:00.328Z,73757
2017-03-17T02:07:10.450Z,73756
2017-03-17T02:07:20.267Z,73754
2017-03-17T02:07:30.068Z,73760
2017-03-17T02:07:40.158Z,73751
2017-03-17T02:07:50.249Z,73755
2017-03-17T02:08:00.046Z,73756
2017-03-17T02:08:10.159Z,73759
2017-03-17T02:08:20.259Z,73760